createdAt,value
2022-10-24T00:01:29.523Z,102187.88
2022-10-24T00:03:56.724Z,102186.12
2022-10-24T00:06:24.032Z,102184.79
2022-10-24T00:08:52.328Z,102181.11
2022-10-24T00:11:23.250Z,102182.34
2022-10-24T00:13:51.416Z,102180.79
2022-10-24T00:16:18.991Z,102181.05
2022-10-24T00:18:46.440Z,102181.83
2022-10-24T00:21:14.412Z,102178.05
2022-10-24T00:23:41.871Z,102176.55
2022-10-24T00:26:10.763Z,102176.27
2022-10-24T00:28:38.321Z,102178.30
2022-10-24T00:31:08.550Z,102180.76
2022-10-24T00:33:35.901Z,102181.81
2022-10-24T00:36:03.356Z,102179.47
2022-10-24T00:38:31.624Z,102179.52
2022-10-24T00:40:58.557Z,102179.13
2022-10-24T00:43:26.962Z,102178.39
2022-10-24T00:45:55.390Z,102175.54
2022-10-24T00:48:36.542Z,102175.17
2022-10-24T00:51:14.798Z,102175.14
2022-10-24T00:53:48.432Z,102170.23
2022-10-24T00:56:22.913Z,102168.80
2022-10-24T00:58:52.984Z,102168.85
2022-10-24T01:01:20.337Z,102168.09
2022-10-24T01:03:47.879Z,102163.30
2022-10-24T01:06:32.753Z,102158.35
2022-10-24T01:09:12.257Z,102160.52
2022-10-24T01:11:57.451Z,102158.66
2022-10-24T01:14:52.764Z,102157.05
2022-10-24T01:17:57.494Z,102155.02
2022-10-24T01:20:56.187Z,102153.77
2022-10-24T01:24:13.003Z,102152.16
2022-10-24T01:27:08.409Z,102151.39
2022-10-24T01:29:51.503Z,102150.44
2022-10-24T01:32:40.304Z,102151.86
2022-10-24T01:35:45.340Z,102151.78
2022-10-24T01:38:12.386Z,102155.64
2022-10-24T01:40:59.394Z,102156.27
2022-10-24T01:43:35.375Z,102158.73
2022-10-24T01:46:07.229Z,102160.64
2022-10-24T01:48:39.359Z,102162.55
2022-10-24T01:51:12.469Z,102162.19
2022-10-24T01:53:41.265Z,102162.14
2022-10-24T01:56:14.071Z,102158.79
2022-10-24T01:58:41.086Z,102159.47
2022-10-24T02:01:14.945Z,102159.04
2022-10-24T02:03:56.281Z,102157.11
2022-10-24T02:06:34.408Z,102151.62
2022-10-24T02:09:08.787Z,102146.45
2022-10-24T02:11:37.826Z,102142.02
2022-10-24T02:14:20.907Z,102142.66
2022-10-24T02:16:49.328Z,102142.88
2022-10-24T02:19:17.580Z,102138.77
2022-10-24T02:22:17.312Z,102140.51
2022-10-24T02:25:24.897Z,102135.33
2022-10-24T02:28:35.972Z,102133.30
2022-10-24T02:31:21.992Z,102134.77
2022-10-24T02:33:51.936Z,102131.13
2022-10-24T02:36:25.443Z,102128.61
2022-10-24T02:38:54.271Z,102129.84
2022-10-24T02:41:29.434Z,102130.90
2022-10-24T02:43:58.735Z,102129.58
2022-10-24T02:46:27.088Z,102128.88
2022-10-24T02:48:58.851Z,102126.91
2022-10-24T02:51:29.370Z,102130.22
2022-10-24T02:53:58.161Z,102126.75
2022-10-24T02:56:25.268Z,102130.69
2022-10-24T02:58:52.363Z,102135.21
2022-10-24T03:01:19.755Z,102133.30
2022-10-24T03:03:47.068Z,102131.25
2022-10-24T03:06:14.022Z,102131.19
2022-10-24T03:08:42.496Z,102133.15
2022-10-24T03:11:09.759Z,102128.69
2022-10-24T03:13:39.353Z,102128.41
2022-10-24T03:16:09.090Z,102123.62
2022-10-24T03:18:38.780Z,102122.23
2022-10-24T03:21:05.718Z,102117.27
2022-10-24T03:23:32.791Z,102120.95
2022-10-24T03:26:03.505Z,102117.27
2022-10-24T03:28:31.988Z,102116.15
2022-10-24T03:30:59.252Z,102117.16
2022-10-24T03:33:26.898Z,102117.51
2022-10-24T03:35:56.883Z,102116.93
2022-10-24T03:38:24.584Z,102117.20
2022-10-24T03:40:53.057Z,102114.73
2022-10-24T03:43:20.264Z,102118.47
2022-10-24T03:45:47.464Z,102119.48
2022-10-24T03:48:16.878Z,102118.68
2022-10-24T03:50:44.406Z,102121.71
2022-10-24T03:53:11.586Z,102120.22
2022-10-24T03:55:39.035Z,102125.86
2022-10-24T03:58:06.098Z,102121.38
2022-10-24T04:00:39.702Z,102123.39
2022-10-24T04:03:14.930Z,102116.98
2022-10-24T04:05:41.974Z,102114.06
2022-10-24T04:08:09.457Z,102117.25
2022-10-24T04:10:38.370Z,102113.84
2022-10-24T04:13:05.366Z,102114.46
2022-10-24T04:15:32.515Z,102111.09
2022-10-24T04:18:02.327Z,102115.30
2022-10-24T04:20:29.578Z,102117.80
2022-10-24T04:22:57.176Z,102118.33
2022-10-24T04:25:24.709Z,102118.14
2022-10-24T04:27:51.606Z,102117.48
2022-10-24T04:30:19.198Z,102123.71
2022-10-24T04:32:46.591Z,102122.92
2022-10-24T04:35:14.446Z,102122.33
2022-10-24T04:37:41.405Z,102121.05
2022-10-24T04:40:09.137Z,102120.04
2022-10-24T04:42:36.182Z,102120.03
2022-10-24T04:45:07.335Z,102118.75
2022-10-24T04:47:34.794Z,102121.52
2022-10-24T04:50:05.631Z,102125.16
2022-10-24T04:52:33.455Z,102127.35
2022-10-24T04:55:01.670Z,102122.02
2022-10-24T04:57:28.713Z,102119.30
2022-10-24T04:59:56.575Z,102120.52
2022-10-24T05:02:23.771Z,102123.20
2022-10-24T05:04:53.067Z,102126.69
2022-10-24T05:07:22.162Z,102123.91
2022-10-24T05:09:49.283Z,102119.75
2022-10-24T05:14:47.378Z,102121.41
2022-10-24T05:17:15.866Z,102122.73
2022-10-24T05:19:42.874Z,102123.75
2022-10-24T05:22:11.064Z,102125.40
2022-10-24T05:24:39.350Z,102127.85
2022-10-24T05:27:17.656Z,102129.00
2022-10-24T05:29:46.883Z,102131.48
2022-10-24T05:32:18.427Z,102129.37
2022-10-24T05:34:49.549Z,102133.09
2022-10-24T05:37:17.925Z,102137.53
2022-10-24T05:39:48.323Z,102135.39
2022-10-24T05:42:21.346Z,102136.55
2022-10-24T05:44:52.382Z,102143.10
2022-10-24T05:47:22.767Z,102144.27
2022-10-24T05:49:55.016Z,102145.64
2022-10-24T05:52:29.778Z,102141.86
2022-10-24T05:55:08.819Z,102142.55
2022-10-24T05:57:38.660Z,102144.57
2022-10-24T06:00:09.334Z,102144.82
2022-10-24T06:02:40.706Z,102147.64
2022-10-24T06:05:09.212Z,102155.19
2022-10-24T06:07:37.187Z,102158.94
2022-10-24T06:10:08.170Z,102164.73
2022-10-24T06:12:39.263Z,102168.69
2022-10-24T06:15:11.029Z,102172.20
2022-10-24T06:17:41.391Z,102176.58
2022-10-24T06:20:10.372Z,102176.63
2022-10-24T06:22:37.805Z,102179.77
2022-10-24T06:25:05.465Z,102181.95
2022-10-24T06:27:32.532Z,102182.20
2022-10-24T06:29:59.674Z,102181.79
2022-10-24T06:32:27.024Z,102182.11
2022-10-24T06:35:00.103Z,102180.51
2022-10-24T06:37:35.651Z,102187.31
2022-10-24T06:40:13.799Z,102187.61
2022-10-24T06:42:49.107Z,102190.13
2022-10-24T06:45:26.603Z,102195.56
2022-10-24T06:48:03.753Z,102195.94
2022-10-24T06:50:42.529Z,102197.64
2022-10-24T06:53:16.610Z,102199.91
2022-10-24T06:55:52.478Z,102204.52
2022-10-24T06:58:27.458Z,102207.20
2022-10-24T07:01:02.357Z,102210.28
2022-10-24T07:03:32.656Z,102212.97
2022-10-24T07:06:00.087Z,102212.05
2022-10-24T07:08:27.188Z,102217.91
2022-10-24T07:10:54.420Z,102214.30
2022-10-24T07:13:22.087Z,102216.69
2022-10-24T07:15:49.128Z,102220.41
2022-10-24T07:18:16.587Z,102221.80
2022-10-24T07:20:43.539Z,102226.46
2022-10-24T07:23:10.545Z,102223.11
2022-10-24T07:25:42.052Z,102223.80
2022-10-24T07:28:11.840Z,102225.16
2022-10-24T07:30:40.253Z,102227.92
2022-10-24T07:33:08.461Z,102228.16
2022-10-24T07:35:35.466Z,102228.77
2022-10-24T07:38:03.146Z,102228.59
2022-10-24T07:40:32.830Z,102228.52
2022-10-24T07:43:02.957Z,102235.11
2022-10-24T07:45:35.404Z,102237.50
2022-10-24T07:48:06.040Z,102236.30
2022-10-24T07:50:35.647Z,102234.95
2022-10-24T07:53:02.700Z,102232.35
2022-10-24T07:55:30.260Z,102232.77
2022-10-24T07:57:57.406Z,102233.58
2022-10-24T08:00:35.105Z,102235.84
2022-10-24T08:03:03.094Z,102234.40
2022-10-24T08:05:30.231Z,102233.92
2022-10-24T08:08:12.043Z,102232.74
2022-10-24T08:10:45.277Z,102233.02
2022-10-24T08:13:13.628Z,102230.88
2022-10-24T08:15:42.715Z,102232.54
2022-10-24T08:18:12.387Z,102230.98
2022-10-24T08:20:39.438Z,102234.23
2022-10-24T08:23:06.393Z,102233.02
2022-10-24T08:25:33.489Z,102233.73
2022-10-24T08:28:02.871Z,102233.84
2022-10-24T08:30:32.347Z,102238.55
2022-10-24T08:32:59.387Z,102233.80
2022-10-24T08:35:26.742Z,102234.13
2022-10-24T08:37:55.842Z,102236.61
2022-10-24T08:40:22.774Z,102240.61
2022-10-24T08:42:50.619Z,102240.17
2022-10-24T08:45:29.578Z,102239.38
2022-10-24T08:48:03.788Z,102239.27
2022-10-24T08:50:33.812Z,102237.98
2022-10-24T08:53:13.250Z,102236.02
2022-10-24T08:55:50.336Z,102236.45
2022-10-24T08:58:25.460Z,102237.46
2022-10-24T09:00:56.718Z,102243.90
2022-10-24T09:03:57.938Z,102240.13
2022-10-24T09:06:27.885Z,102243.48
2022-10-24T09:08:57.817Z,102239.09
2022-10-24T09:11:50.262Z,102240.16
2022-10-24T09:14:31.334Z,102240.95
2022-10-24T09:17:11.627Z,102242.77
2022-10-24T09:19:44.863Z,102242.02
2022-10-24T09:22:12.668Z,102245.73
2022-10-24T09:24:55.361Z,102245.20
2022-10-24T09:27:25.941Z,102241.27
2022-10-24T09:29:53.332Z,102238.39
2022-10-24T09:32:23.561Z,102242.28
2022-10-24T09:34:51.221Z,102238.61
2022-10-24T09:37:42.841Z,102238.62
2022-10-24T09:40:25.356Z,102240.70
2022-10-24T09:43:14.632Z,102240.06
2022-10-24T09:45:45.661Z,102234.69
2022-10-24T09:48:25.863Z,102235.59
2022-10-24T09:50:57.380Z,102232.28
2022-10-24T09:53:36.305Z,102232.60
2022-10-24T09:56:14.880Z,102230.58
2022-10-24T09:58:44.226Z,102230.61
2022-10-24T10:01:14.348Z,102231.52
2022-10-24T10:04:01.229Z,102232.91
2022-10-24T10:06:33.412Z,102233.96
2022-10-24T10:09:00.929Z,102231.31
2022-10-24T10:11:35.179Z,102232.05
2022-10-24T10:14:03.263Z,102231.98
2022-10-24T10:16:40.043Z,102228.32
2022-10-24T10:19:14.464Z,102228.77
2022-10-24T10:22:06.472Z,102226.98
2022-10-24T10:24:39.712Z,102224.54
2022-10-24T10:27:25.376Z,102220.83
2022-10-24T10:30:19.466Z,102216.04
2022-10-24T10:32:58.177Z,102215.14
2022-10-24T10:35:50.212Z,102211.36
2022-10-24T10:38:26.365Z,102209.07
2022-10-24T10:41:04.081Z,102202.10
2022-10-24T10:43:31.316Z,102200.17
2022-10-24T10:46:40.247Z,102197.83
2022-10-24T10:49:30.171Z,102195.75
2022-10-24T10:52:14.281Z,102192.28
2022-10-24T10:55:09.181Z,102186.36
2022-10-24T10:58:01.155Z,102185.41
2022-10-24T11:00:43.153Z,102187.59
2022-10-24T11:03:10.671Z,102185.93
2022-10-24T11:05:37.617Z,102177.50
2022-10-24T11:08:19.709Z,102178.89
2022-10-24T11:10:54.030Z,102179.04
2022-10-24T11:13:34.187Z,102177.61
2022-10-24T11:16:07.210Z,102171.86
2022-10-24T11:18:42.520Z,102167.21
2022-10-24T11:21:12.135Z,102165.43
2022-10-24T11:24:14.091Z,102166.61
2022-10-24T11:26:57.116Z,102166.09
2022-10-24T11:29:46.308Z,102159.38
2022-10-24T11:32:43.482Z,102157.52
2022-10-24T11:35:19.706Z,102158.33
2022-10-24T11:37:51.168Z,102152.88
2022-10-24T11:40:23.015Z,102152.83
2022-10-24T11:43:02.504Z,102146.82
2022-10-24T11:45:59.620Z,102146.88
2022-10-24T11:48:38.619Z,102141.81
2022-10-24T11:51:19.805Z,102136.33
2022-10-24T11:53:57.980Z,102131.36
2022-10-24T11:56:34.968Z,102128.48
2022-10-24T11:59:08.304Z,102122.19
2022-10-24T12:01:54.593Z,102120.64
2022-10-24T12:04:42.948Z,102116.59
2022-10-24T12:07:22.090Z,102115.31
2022-10-24T12:10:10.900Z,102110.58
2022-10-24T12:13:05.827Z,102111.11
2022-10-24T12:16:00.636Z,102108.64
2022-10-24T12:18:31.598Z,102105.24
2022-10-24T12:21:08.340Z,102102.02
2022-10-24T12:23:36.716Z,102099.05
2022-10-24T12:26:13.375Z,102096.08
2022-10-24T12:28:41.667Z,102095.65
2022-10-24T12:31:21.018Z,102090.48
2022-10-24T12:34:19.802Z,102091.02
2022-10-24T12:37:09.903Z,102090.29
2022-10-24T12:39:58.744Z,102084.75
2022-10-24T12:42:25.687Z,102084.11
2022-10-24T12:45:12.918Z,102084.05
2022-10-24T12:48:04.022Z,102082.52
2022-10-24T12:50:30.953Z,102082.66
2022-10-24T12:53:40.819Z,102084.48
2022-10-24T12:56:12.318Z,102081.05
2022-10-24T12:58:43.114Z,102081.96
2022-10-24T13:01:27.584Z,102078.83
2022-10-24T13:04:26.769Z,102081.90
2022-10-24T13:07:12.253Z,102077.22
2022-10-24T13:10:11.352Z,102082.16
2022-10-24T13:13:17.080Z,102079.38
2022-10-24T13:16:10.273Z,102072.66
2022-10-24T13:18:50.730Z,102072.88
2022-10-24T13:21:22.080Z,102076.34
2022-10-24T13:23:50.349Z,102074.34
2022-10-24T13:26:38.701Z,102070.56
2022-10-24T13:29:12.650Z,102070.77
2022-10-24T13:31:42.302Z,102068.06
2022-10-24T13:34:26.874Z,102068.06
2022-10-24T13:37:24.198Z,102063.07
2022-10-24T13:39:57.508Z,102058.60
2022-10-24T13:42:39.131Z,102057.80
2022-10-24T13:45:16.906Z,102060.05
2022-10-24T13:47:48.874Z,102054.82
2022-10-24T13:50:22.689Z,102056.32
2022-10-24T13:52:59.293Z,102053.48
2022-10-24T13:55:32.021Z,102052.04
2022-10-24T13:58:07.179Z,102048.25
2022-10-24T14:00:38.898Z,102043.47
2022-10-24T14:03:17.133Z,102047.71
2022-10-24T14:05:53.320Z,102053.45
2022-10-24T14:08:23.322Z,102053.73
2022-10-24T14:10:53.656Z,102050.36
2022-10-24T14:13:23.790Z,102048.77
2022-10-24T14:15:54.677Z,102049.86
2022-10-24T14:18:23.294Z,102043.95
2022-10-24T14:21:05.303Z,102046.08
2022-10-24T14:23:39.013Z,102040.80
2022-10-24T14:26:21.302Z,102040.74
2022-10-24T14:28:52.029Z,102046.15
2022-10-24T14:31:20.823Z,102041.88
2022-10-24T14:33:54.321Z,102039.47
2022-10-24T14:36:30.887Z,102038.35
2022-10-24T14:39:04.098Z,102041.55
2022-10-24T14:41:42.559Z,102042.33
2022-10-24T14:44:15.998Z,102044.56
2022-10-24T14:46:45.497Z,102044.58
2022-10-24T14:49:27.695Z,102043.13
2022-10-24T14:51:58.331Z,102038.58
2022-10-24T14:54:33.799Z,102040.54
2022-10-24T14:57:03.379Z,102037.98
2022-10-24T14:59:36.084Z,102036.27
2022-10-24T15:02:25.800Z,102035.90
2022-10-24T15:05:12.858Z,102035.10
2022-10-24T15:07:44.926Z,102035.11
2022-10-24T15:10:19.555Z,102033.30
2022-10-24T15:12:54.192Z,102026.95
2022-10-24T15:15:34.460Z,102025.05
2022-10-24T15:18:22.163Z,102022.27
2022-10-24T15:20:53.276Z,102020.40
2022-10-24T15:23:27.475Z,102018.23
2022-10-24T15:26:10.471Z,102013.58
2022-10-24T15:29:03.910Z,102016.19
2022-10-24T15:31:33.921Z,102015.38
2022-10-24T15:34:01.268Z,102015.04
2022-10-24T15:36:34.985Z,102017.20
2022-10-24T15:39:10.044Z,102016.51
2022-10-24T15:41:39.105Z,102015.89
2022-10-24T15:44:18.999Z,102017.40
2022-10-24T15:46:47.141Z,102015.71
2022-10-24T15:49:14.749Z,102015.11
2022-10-24T15:51:47.433Z,102017.79
2022-10-24T15:54:19.349Z,102016.61
2022-10-24T15:56:46.505Z,102013.68
2022-10-24T15:59:13.540Z,102013.90
2022-10-24T16:01:53.766Z,102013.36
2022-10-24T16:04:23.230Z,102010.65
2022-10-24T16:06:56.830Z,102014.86
2022-10-24T16:09:31.413Z,102016.80
2022-10-24T16:12:05.765Z,102017.56
2022-10-24T16:14:33.309Z,102018.57
2022-10-24T16:17:00.658Z,102019.20
2022-10-24T16:19:28.013Z,102019.27
2022-10-24T16:21:58.965Z,102022.71
2022-10-24T16:24:28.071Z,102029.33
2022-10-24T16:26:55.608Z,102028.08
2022-10-24T16:29:22.759Z,102027.56
2022-10-24T16:31:51.143Z,102029.55
2022-10-24T16:34:18.049Z,102030.63
2022-10-24T16:36:45.841Z,102030.84
2022-10-24T16:39:14.668Z,102030.68
2022-10-24T16:41:46.601Z,102034.14
2022-10-24T16:44:15.384Z,102037.39
2022-10-24T16:46:42.340Z,102041.75
2022-10-24T16:49:09.397Z,102044.30
2022-10-24T16:51:39.276Z,102043.91
2022-10-24T16:54:10.035Z,102047.42
2022-10-24T16:56:37.883Z,102050.44
2022-10-24T16:59:05.050Z,102048.41
2022-10-24T17:01:32.198Z,102044.84
2022-10-24T17:04:03.240Z,102047.61
2022-10-24T17:06:30.586Z,102048.73
2022-10-24T17:08:59.584Z,102046.81
2022-10-24T17:11:44.381Z,102044.59
2022-10-24T17:14:16.702Z,102049.41
2022-10-24T17:16:44.587Z,102049.02
2022-10-24T17:19:16.463Z,102051.02
2022-10-24T17:21:49.106Z,102051.18
2022-10-24T17:24:18.906Z,102049.23
2022-10-24T17:26:47.256Z,102045.23
2022-10-24T17:29:30.136Z,102048.65
2022-10-24T17:31:58.931Z,102046.66
2022-10-24T17:34:26.791Z,102047.41
2022-10-24T17:37:18.756Z,102046.96
2022-10-24T17:40:05.376Z,102049.58
2022-10-24T17:42:34.755Z,102050.13
2022-10-24T17:45:02.708Z,102051.73
2022-10-24T17:47:29.849Z,102055.03
2022-10-24T17:49:57.002Z,102052.64
2022-10-24T17:52:25.129Z,102054.76
2022-10-24T17:54:52.330Z,102054.88
2022-10-24T17:57:19.370Z,102057.48
2022-10-24T17:59:46.335Z,102064.35
2022-10-24T18:02:16.801Z,102061.91
2022-10-24T18:04:45.750Z,102064.98
2022-10-24T18:07:12.904Z,102064.77
2022-10-24T18:09:40.367Z,102064.20
2022-10-24T18:12:07.719Z,102065.27
2022-10-24T18:14:37.554Z,102061.87
2022-10-24T18:17:06.194Z,102066.09
2022-10-24T18:19:33.663Z,102068.45
2022-10-24T18:22:01.436Z,102068.08
2022-10-24T18:24:29.092Z,102068.19
2022-10-24T18:26:56.251Z,102069.11
2022-10-24T18:29:23.396Z,102063.58
2022-10-24T18:31:50.544Z,102060.43
2022-10-24T18:34:20.767Z,102062.78
2022-10-24T18:36:47.918Z,102065.45
2022-10-24T18:39:15.676Z,102063.64
2022-10-24T18:42:14.171Z,102071.30
2022-10-24T18:44:42.149Z,102070.40
2022-10-24T18:47:20.811Z,102070.56
2022-10-24T18:49:50.772Z,102069.64
2022-10-24T18:52:37.891Z,102068.68
2022-10-24T18:55:18.769Z,102070.80
2022-10-24T18:57:47.290Z,102068.20
2022-10-24T19:00:29.385Z,102064.23
2022-10-24T19:03:16.666Z,102063.16
2022-10-24T19:05:51.992Z,102066.77
2022-10-24T19:08:25.116Z,102067.89
2022-10-24T19:10:55.272Z,102063.38
2022-10-24T19:13:24.319Z,102065.48
2022-10-24T19:16:00.334Z,102064.95
2022-10-24T19:18:30.893Z,102066.38
2022-10-24T19:20:59.373Z,102067.45
2022-10-24T19:23:27.440Z,102067.09
2022-10-24T19:25:54.538Z,102067.16
2022-10-24T19:28:22.114Z,102065.39
2022-10-24T19:30:52.280Z,102063.61
2022-10-24T19:33:19.332Z,102059.94
2022-10-24T19:35:47.820Z,102060.09
2022-10-24T19:38:18.536Z,102060.42
2022-10-24T19:40:52.213Z,102059.52
2022-10-24T19:43:25.953Z,102054.78
2022-10-24T19:46:07.813Z,102059.05
2022-10-24T19:48:43.289Z,102060.64
2022-10-24T19:51:13.366Z,102064.65
2022-10-24T19:53:43.525Z,102061.93
2022-10-24T19:56:23.899Z,102058.36
2022-10-24T19:58:54.521Z,102058.13
2022-10-24T20:01:25.285Z,102058.45
2022-10-24T20:03:57.851Z,102058.59
2022-10-24T20:06:26.639Z,102062.65
2022-10-24T20:08:57.023Z,102062.04
2022-10-24T20:11:44.270Z,102064.77
2022-10-24T20:14:14.555Z,102065.08
2022-10-24T20:16:43.786Z,102069.52
2022-10-24T20:19:10.840Z,102068.39
2022-10-24T20:21:39.462Z,102069.09
2022-10-24T20:24:06.773Z,102073.35
2022-10-24T20:26:36.384Z,102073.66
2022-10-24T20:29:04.349Z,102072.42
2022-10-24T20:31:32.526Z,102075.88
2022-10-24T20:34:06.815Z,102074.12
2022-10-24T20:36:47.409Z,102077.20
2022-10-24T20:39:16.402Z,102078.58
2022-10-24T20:41:43.756Z,102075.77
2022-10-24T20:44:12.622Z,102077.61
2022-10-24T20:46:44.482Z,102074.20
2022-10-24T20:49:12.549Z,102077.17
2022-10-24T20:51:42.393Z,102076.55
2022-10-24T20:54:11.597Z,102075.98
2022-10-24T20:56:42.273Z,102075.20
2022-10-24T20:59:14.395Z,102073.48
2022-10-24T21:01:41.746Z,102073.27
2022-10-24T21:04:10.526Z,102067.98
2022-10-24T21:06:37.966Z,102066.55
2022-10-24T21:09:06.835Z,102065.88
2022-10-24T21:11:35.070Z,102060.91
2022-10-24T21:14:07.434Z,102059.21
2022-10-24T21:16:37.860Z,102052.28
2022-10-24T21:19:05.106Z,102053.23
2022-10-24T21:21:32.154Z,102050.05
2022-10-24T21:24:04.359Z,102051.59
2022-10-24T21:26:39.982Z,102047.86
2022-10-24T21:29:14.627Z,102046.95
2022-10-24T21:31:56.707Z,102048.38
2022-10-24T21:34:23.750Z,102048.70
2022-10-24T21:36:50.695Z,102047.05
2022-10-24T21:39:18.149Z,102043.65
2022-10-24T21:41:46.544Z,102040.14
2022-10-24T21:44:14.806Z,102045.03
2022-10-24T21:46:41.957Z,102041.48
2022-10-24T21:49:09.511Z,102041.27
2022-10-24T21:51:38.718Z,102040.41
2022-10-24T21:54:14.681Z,102044.82
2022-10-24T21:56:41.716Z,102045.62
2022-10-24T21:59:13.273Z,102043.02
2022-10-24T22:01:41.043Z,102039.27
2022-10-24T22:04:09.899Z,102041.13
2022-10-24T22:06:39.019Z,102036.94
2022-10-24T22:09:08.539Z,102035.67
2022-10-24T22:11:36.635Z,102033.17
2022-10-24T22:14:06.406Z,102034.39
2022-10-24T22:16:34.898Z,102031.95
2022-10-24T22:19:05.221Z,102031.13
2022-10-24T22:21:36.994Z,102030.28
2022-10-24T22:24:16.120Z,102032.30
2022-10-24T22:26:43.156Z,102026.13
2022-10-24T22:29:13.810Z,102023.99
2022-10-24T22:31:41.344Z,102024.95
2022-10-24T22:34:11.156Z,102023.73
2022-10-24T22:36:48.751Z,102028.83
2022-10-24T22:39:18.874Z,102026.13
2022-10-24T22:41:47.117Z,102030.92
2022-10-24T22:44:16.953Z,102028.84
2022-10-24T22:47:06.024Z,102032.48
2022-10-24T22:49:36.006Z,102033.06
2022-10-24T22:52:04.013Z,102034.30
2022-10-24T22:54:35.664Z,102033.70
2022-10-24T22:57:04.262Z,102033.75
2022-10-24T22:59:32.863Z,102033.21
2022-10-24T23:02:18.406Z,102031.49
2022-10-24T23:05:04.536Z,102030.16
2022-10-24T23:07:54.809Z,102029.95
2022-10-24T23:10:25.415Z,102028.16
2022-10-24T23:12:55.807Z,102027.99
2022-10-24T23:15:26.597Z,102029.75
2022-10-24T23:17:54.769Z,102028.25
2022-10-24T23:20:21.625Z,102027.77
2022-10-24T23:22:58.106Z,102028.98
2022-10-24T23:25:37.232Z,102027.76
2022-10-24T23:28:24.969Z,102028.88
2022-10-24T23:30:52.650Z,102025.67
2022-10-24T23:33:27.800Z,102023.81
2022-10-24T23:35:58.692Z,102021.73
2022-10-24T23:38:33.246Z,102024.83
2022-10-24T23:41:00.884Z,102021.70
2022-10-24T23:43:29.481Z,102019.73
2022-10-24T23:46:03.277Z,102021.06
2022-10-24T23:48:33.486Z,102019.63
2022-10-24T23:51:12.408Z,102019.56
2022-10-24T23:53:55.667Z,102018.55
2022-10-24T23:56:33.060Z,102014.45
2022-10-24T23:59:00.080Z,102012.57
